sensor_id;sensor_type;location;lat;lon;timestamp;P1;durP1;ratioP1;P2;durP2;ratioP2
54201;SDS011;40108;53.152;5.844;2023-12-28T00:01:19;14.40;;;4.88;;
54201;SDS011;40108;53.152;5.844;2023-12-28T00:03:47;12.40;;;5.13;;
54201;SDS011;40108;53.152;5.844;2023-12-28T00:06:14;18.25;;;5.13;;
54201;SDS011;40108;53.152;5.844;2023-12-28T00:08:40;19.40;;;4.47;;
54201;SDS011;40108;53.152;5.844;2023-12-28T00:11:06;24.85;;;5.35;;
54201;SDS011;40108;53.152;5.844;2023-12-28T00:13:32;21.67;;;5.60;;
54201;SDS011;40108;53.152;5.844;2023-12-28T00:15:57;23.10;;;5.10;;
54201;SDS011;40108;53.152;5.844;2023-12-28T00:18:23;22.27;;;3.92;;
54201;SDS011;40108;53.152;5.844;2023-12-28T00:20:49;19.65;;;4.25;;
54201;SDS011;40108;53.152;5.844;2023-12-28T00:23:15;26.77;;;5.50;;
54201;SDS011;40108;53.152;5.844;2023-12-28T00:25:41;24.00;;;4.63;;
54201;SDS011;40108;53.152;5.844;2023-12-28T00:28:07;26.60;;;4.72;;
54201;SDS011;40108;53.152;5.844;2023-12-28T00:30:33;29.52;;;4.68;;
54201;SDS011;40108;53.152;5.844;2023-12-28T00:32:58;25.20;;;4.50;;
54201;SDS011;40108;53.152;5.844;2023-12-28T00:35:24;28.13;;;4.05;;
54201;SDS011;40108;53.152;5.844;2023-12-28T00:37:50;36.72;;;5.00;;
54201;SDS011;40108;53.152;5.844;2023-12-28T00:40:16;29.15;;;4.47;;
54201;SDS011;40108;53.152;5.844;2023-12-28T00:42:41;29.05;;;4.90;;
54201;SDS011;40108;53.152;5.844;2023-12-28T00:45:08;33.85;;;5.13;;
54201;SDS011;40108;53.152;5.844;2023-12-28T00:47:37;23.45;;;4.18;;
54201;SDS011;40108;53.152;5.844;2023-12-28T00:50:02;33.28;;;3.80;;
54201;SDS011;40108;53.152;5.844;2023-12-28T00:52:28;32.60;;;5.15;;
54201;SDS011;40108;53.152;5.844;2023-12-28T00:54:54;29.77;;;4.28;;
54201;SDS011;40108;53.152;5.844;2023-12-28T00:57:20;30.27;;;5.38;;
54201;SDS011;40108;53.152;5.844;2023-12-28T00:59:45;31.83;;;4.35;;
54201;SDS011;40108;53.152;5.844;2023-12-28T01:02:11;32.47;;;4.18;;
54201;SDS011;40108;53.152;5.844;2023-12-28T01:04:37;28.92;;;4.50;;
54201;SDS011;40108;53.152;5.844;2023-12-28T01:07:03;26.00;;;3.92;;
54201;SDS011;40108;53.152;5.844;2023-12-28T01:09:31;26.42;;;3.63;;
54201;SDS011;40108;53.152;5.844;2023-12-28T01:11:59;25.52;;;3.38;;
54201;SDS011;40108;53.152;5.844;2023-12-28T01:14:25;27.00;;;4.28;;
54201;SDS011;40108;53.152;5.844;2023-12-28T01:16:51;25.67;;;4.60;;
54201;SDS011;40108;53.152;5.844;2023-12-28T01:19:17;34.58;;;4.50;;
54201;SDS011;40108;53.152;5.844;2023-12-28T01:21:43;29.05;;;4.43;;
54201;SDS011;40108;53.152;5.844;2023-12-28T01:24:08;23.13;;;3.85;;
54201;SDS011;40108;53.152;5.844;2023-12-28T01:26:34;33.22;;;4.05;;
54201;SDS011;40108;53.152;5.844;2023-12-28T01:29:00;31.35;;;4.20;;
54201;SDS011;40108;53.152;5.844;2023-12-28T01:31:29;32.38;;;5.20;;
54201;SDS011;40108;53.152;5.844;2023-12-28T01:33:54;36.33;;;4.68;;
54201;SDS011;40108;53.152;5.844;2023-12-28T01:36:20;22.05;;;4.45;;
54201;SDS011;40108;53.152;5.844;2023-12-28T01:38:51;27.55;;;3.85;;
54201;SDS011;40108;53.152;5.844;2023-12-28T01:41:17;30.42;;;4.65;;
54201;SDS011;40108;53.152;5.844;2023-12-28T01:43:42;35.03;;;4.90;;
54201;SDS011;40108;53.152;5.844;2023-12-28T01:46:10;35.78;;;5.13;;
54201;SDS011;40108;53.152;5.844;2023-12-28T01:48:42;27.30;;;5.25;;
54201;SDS011;40108;53.152;5.844;2023-12-28T01:51:12;34.58;;;4.47;;
54201;SDS011;40108;53.152;5.844;2023-12-28T01:53:39;42.97;;;4.32;;
54201;SDS011;40108;53.152;5.844;2023-12-28T01:56:05;30.17;;;4.32;;
54201;SDS011;40108;53.152;5.844;2023-12-28T01:58:32;32.88;;;5.00;;
54201;SDS011;40108;53.152;5.844;2023-12-28T02:01:00;27.92;;;4.28;;
54201;SDS011;40108;53.152;5.844;2023-12-28T02:03:26;28.48;;;4.93;;
54201;SDS011;40108;53.152;5.844;2023-12-28T02:05:52;30.10;;;4.28;;
54201;SDS011;40108;53.152;5.844;2023-12-28T02:08:19;28.13;;;4.45;;
54201;SDS011;40108;53.152;5.844;2023-12-28T02:10:45;27.80;;;5.07;;
54201;SDS011;40108;53.152;5.844;2023-12-28T02:13:11;25.75;;;3.78;;
54201;SDS011;40108;53.152;5.844;2023-12-28T02:15:37;23.90;;;3.72;;
54201;SDS011;40108;53.152;5.844;2023-12-28T02:20:39;30.75;;;4.68;;
54201;SDS011;40108;53.152;5.844;2023-12-28T02:23:06;22.77;;;3.08;;
54201;SDS011;40108;53.152;5.844;2023-12-28T02:25:33;25.52;;;3.45;;
54201;SDS011;40108;53.152;5.844;2023-12-28T02:27:59;23.10;;;3.30;;
54201;SDS011;40108;53.152;5.844;2023-12-28T02:30:25;27.58;;;4.15;;
54201;SDS011;40108;53.152;5.844;2023-12-28T02:35:44;25.52;;;3.83;;
54201;SDS011;40108;53.152;5.844;2023-12-28T02:38:17;25.80;;;3.05;;
54201;SDS011;40108;53.152;5.844;2023-12-28T02:40:44;27.42;;;3.50;;
54201;SDS011;40108;53.152;5.844;2023-12-28T02:43:11;30.83;;;3.53;;
54201;SDS011;40108;53.152;5.844;2023-12-28T02:45:37;22.85;;;3.33;;
54201;SDS011;40108;53.152;5.844;2023-12-28T02:48:04;20.20;;;3.25;;
54201;SDS011;40108;53.152;5.844;2023-12-28T02:50:30;18.38;;;3.25;;
54201;SDS011;40108;53.152;5.844;2023-12-28T02:52:57;23.33;;;3.13;;
54201;SDS011;40108;53.152;5.844;2023-12-28T02:55:23;23.42;;;2.83;;
54201;SDS011;40108;53.152;5.844;2023-12-28T02:57:50;14.77;;;2.67;;
54201;SDS011;40108;53.152;5.844;2023-12-28T03:00:17;19.70;;;3.00;;
54201;SDS011;40108;53.152;5.844;2023-12-28T03:02:43;14.52;;;2.53;;
54201;SDS011;40108;53.152;5.844;2023-12-28T03:05:09;19.20;;;2.42;;
54201;SDS011;40108;53.152;5.844;2023-12-28T03:07:35;21.83;;;2.80;;
54201;SDS011;40108;53.152;5.844;2023-12-28T03:10:02;13.48;;;2.53;;
54201;SDS011;40108;53.152;5.844;2023-12-28T03:12:29;24.40;;;3.40;;
54201;SDS011;40108;53.152;5.844;2023-12-28T03:14:56;23.27;;;3.65;;
54201;SDS011;40108;53.152;5.844;2023-12-28T03:17:24;14.50;;;2.40;;
54201;SDS011;40108;53.152;5.844;2023-12-28T03:19:50;17.40;;;2.55;;
54201;SDS011;40108;53.152;5.844;2023-12-28T03:22:16;15.75;;;2.63;;
54201;SDS011;40108;53.152;5.844;2023-12-28T03:24:42;12.45;;;2.03;;
54201;SDS011;40108;53.152;5.844;2023-12-28T03:27:08;21.42;;;3.85;;
54201;SDS011;40108;53.152;5.844;2023-12-28T03:29:37;17.45;;;2.53;;
54201;SDS011;40108;53.152;5.844;2023-12-28T03:32:03;17.17;;;3.40;;
54201;SDS011;40108;53.152;5.844;2023-12-28T03:34:29;21.60;;;3.30;;
54201;SDS011;40108;53.152;5.844;2023-12-28T03:36:57;20.40;;;2.53;;
54201;SDS011;40108;53.152;5.844;2023-12-28T03:39:24;23.48;;;2.95;;
54201;SDS011;40108;53.152;5.844;2023-12-28T03:41:49;15.40;;;2.78;;
54201;SDS011;40108;53.152;5.844;2023-12-28T03:44:15;23.48;;;2.90;;
54201;SDS011;40108;53.152;5.844;2023-12-28T03:46:41;24.10;;;3.20;;
54201;SDS011;40108;53.152;5.844;2023-12-28T03:49:07;16.92;;;3.05;;
54201;SDS011;40108;53.152;5.844;2023-12-28T03:51:32;11.63;;;1.80;;
54201;SDS011;40108;53.152;5.844;2023-12-28T03:53:58;15.68;;;2.92;;
54201;SDS011;40108;53.152;5.844;2023-12-28T03:56:25;17.08;;;2.50;;
54201;SDS011;40108;53.152;5.844;2023-12-28T03:58:54;16.88;;;2.90;;
54201;SDS011;40108;53.152;5.844;2023-12-28T04:01:21;19.75;;;2.63;;
54201;SDS011;40108;53.152;5.844;2023-12-28T04:03:47;14.43;;;2.60;;
54201;SDS011;40108;53.152;5.844;2023-12-28T04:06:14;15.82;;;2.45;;
54201;SDS011;40108;53.152;5.844;2023-12-28T04:08:40;19.77;;;2.92;;
54201;SDS011;40108;53.152;5.844;2023-12-28T04:11:07;22.60;;;2.90;;
54201;SDS011;40108;53.152;5.844;2023-12-28T04:13:33;13.25;;;2.55;;
54201;SDS011;40108;53.152;5.844;2023-12-28T04:15:58;17.23;;;2.50;;
54201;SDS011;40108;53.152;5.844;2023-12-28T04:18:24;22.92;;;2.72;;
54201;SDS011;40108;53.152;5.844;2023-12-28T04:20:50;22.85;;;2.92;;
54201;SDS011;40108;53.152;5.844;2023-12-28T04:23:16;21.85;;;3.42;;
54201;SDS011;40108;53.152;5.844;2023-12-28T04:25:42;22.77;;;3.45;;
54201;SDS011;40108;53.152;5.844;2023-12-28T04:28:08;19.38;;;3.45;;
54201;SDS011;40108;53.152;5.844;2023-12-28T04:30:34;20.45;;;3.40;;
54201;SDS011;40108;53.152;5.844;2023-12-28T04:33:00;15.77;;;2.78;;
54201;SDS011;40108;53.152;5.844;2023-12-28T04:35:26;22.10;;;2.90;;
54201;SDS011;40108;53.152;5.844;2023-12-28T04:37:52;27.80;;;3.80;;
54201;SDS011;40108;53.152;5.844;2023-12-28T04:40:17;23.52;;;3.15;;
54201;SDS011;40108;53.152;5.844;2023-12-28T04:42:43;18.88;;;3.03;;
54201;SDS011;40108;53.152;5.844;2023-12-28T04:45:09;29.60;;;4.03;;
54201;SDS011;40108;53.152;5.844;2023-12-28T04:47:35;17.80;;;2.60;;
54201;SDS011;40108;53.152;5.844;2023-12-28T04:50:02;21.48;;;3.13;;
54201;SDS011;40108;53.152;5.844;2023-12-28T04:52:31;26.38;;;4.03;;
54201;SDS011;40108;53.152;5.844;2023-12-28T04:54:57;27.25;;;3.45;;
54201;SDS011;40108;53.152;5.844;2023-12-28T04:57:23;21.80;;;2.78;;
54201;SDS011;40108;53.152;5.844;2023-12-28T04:59:53;24.33;;;4.15;;
54201;SDS011;40108;53.152;5.844;2023-12-28T05:02:19;26.00;;;4.07;;
54201;SDS011;40108;53.152;5.844;2023-12-28T05:04:44;31.50;;;4.70;;
54201;SDS011;40108;53.152;5.844;2023-12-28T05:07:10;31.42;;;3.92;;
54201;SDS011;40108;53.152;5.844;2023-12-28T05:09:36;16.23;;;2.75;;
54201;SDS011;40108;53.152;5.844;2023-12-28T05:12:02;31.98;;;4.65;;
54201;SDS011;40108;53.152;5.844;2023-12-28T05:14:28;28.35;;;4.00;;
54201;SDS011;40108;53.152;5.844;2023-12-28T05:16:53;24.80;;;4.07;;
54201;SDS011;40108;53.152;5.844;2023-12-28T05:19:19;35.15;;;4.03;;
54201;SDS011;40108;53.152;5.844;2023-12-28T05:21:45;28.27;;;4.85;;
54201;SDS011;40108;53.152;5.844;2023-12-28T05:24:12;26.13;;;4.07;;
54201;SDS011;40108;53.152;5.844;2023-12-28T05:26:38;29.45;;;4.72;;
54201;SDS011;40108;53.152;5.844;2023-12-28T05:29:03;39.88;;;5.78;;
54201;SDS011;40108;53.152;5.844;2023-12-28T05:31:29;39.38;;;4.88;;
54201;SDS011;40108;53.152;5.844;2023-12-28T05:33:55;33.67;;;4.97;;
54201;SDS011;40108;53.152;5.844;2023-12-28T05:36:22;28.63;;;4.05;;
54201;SDS011;40108;53.152;5.844;2023-12-28T05:38:47;31.38;;;4.50;;
54201;SDS011;40108;53.152;5.844;2023-12-28T05:41:13;33.45;;;4.70;;
54201;SDS011;40108;53.152;5.844;2023-12-28T05:43:39;30.13;;;4.22;;
54201;SDS011;40108;53.152;5.844;2023-12-28T05:46:05;28.73;;;5.10;;
54201;SDS011;40108;53.152;5.844;2023-12-28T05:48:31;30.00;;;4.32;;
54201;SDS011;40108;53.152;5.844;2023-12-28T05:50:57;36.85;;;5.63;;
54201;SDS011;40108;53.152;5.844;2023-12-28T05:53:24;39.17;;;4.97;;
54201;SDS011;40108;53.152;5.844;2023-12-28T05:55:50;30.48;;;4.55;;
54201;SDS011;40108;53.152;5.844;2023-12-28T05:58:15;26.88;;;4.88;;
54201;SDS011;40108;53.152;5.844;2023-12-28T06:00:42;33.13;;;5.38;;
54201;SDS011;40108;53.152;5.844;2023-12-28T06:03:08;32.28;;;4.72;;
54201;SDS011;40108;53.152;5.844;2023-12-28T06:05:33;31.13;;;4.38;;
54201;SDS011;40108;53.152;5.844;2023-12-28T06:07:59;35.80;;;4.85;;
54201;SDS011;40108;53.152;5.844;2023-12-28T06:10:25;32.70;;;4.00;;
54201;SDS011;40108;53.152;5.844;2023-12-28T06:12:51;29.75;;;4.55;;
54201;SDS011;40108;53.152;5.844;2023-12-28T06:15:16;34.58;;;4.88;;
54201;SDS011;40108;53.152;5.844;2023-12-28T06:17:42;31.08;;;4.20;;
54201;SDS011;40108;53.152;5.844;2023-12-28T06:20:08;30.23;;;4.63;;
54201;SDS011;40108;53.152;5.844;2023-12-28T06:22:38;27.92;;;4.57;;
54201;SDS011;40108;53.152;5.844;2023-12-28T06:25:04;38.90;;;4.53;;
54201;SDS011;40108;53.152;5.844;2023-12-28T06:27:30;36.42;;;5.38;;
54201;SDS011;40108;53.152;5.844;2023-12-28T06:29:56;33.03;;;5.38;;
54201;SDS011;40108;53.152;5.844;2023-12-28T06:32:21;34.03;;;4.97;;
54201;SDS011;40108;53.152;5.844;2023-12-28T06:34:47;24.20;;;5.30;;
54201;SDS011;40108;53.152;5.844;2023-12-28T06:37:13;36.05;;;5.75;;
54201;SDS011;40108;53.152;5.844;2023-12-28T06:39:39;30.58;;;5.43;;
54201;SDS011;40108;53.152;5.844;2023-12-28T06:42:06;41.80;;;5.75;;
54201;SDS011;40108;53.152;5.844;2023-12-28T06:44:32;36.95;;;5.72;;
54201;SDS011;40108;53.152;5.844;2023-12-28T06:46:58;33.10;;;5.82;;
54201;SDS011;40108;53.152;5.844;2023-12-28T06:49:24;42.95;;;5.45;;
54201;SDS011;40108;53.152;5.844;2023-12-28T06:51:52;41.83;;;6.03;;
54201;SDS011;40108;53.152;5.844;2023-12-28T06:54:18;37.72;;;5.07;;
54201;SDS011;40108;53.152;5.844;2023-12-28T06:56:43;33.78;;;4.80;;
54201;SDS011;40108;53.152;5.844;2023-12-28T06:59:09;32.05;;;4.82;;
54201;SDS011;40108;53.152;5.844;2023-12-28T07:01:40;37.05;;;5.88;;
54201;SDS011;40108;53.152;5.844;2023-12-28T07:04:06;37.92;;;6.82;;
54201;SDS011;40108;53.152;5.844;2023-12-28T07:06:32;34.88;;;5.05;;
54201;SDS011;40108;53.152;5.844;2023-12-28T07:08:58;33.92;;;5.35;;
54201;SDS011;40108;53.152;5.844;2023-12-28T07:11:24;41.47;;;5.95;;
54201;SDS011;40108;53.152;5.844;2023-12-28T07:13:51;40.85;;;5.00;;
54201;SDS011;40108;53.152;5.844;2023-12-28T07:16:17;43.40;;;5.38;;
54201;SDS011;40108;53.152;5.844;2023-12-28T07:18:43;41.30;;;6.22;;
54201;SDS011;40108;53.152;5.844;2023-12-28T07:21:08;37.50;;;5.70;;
54201;SDS011;40108;53.152;5.844;2023-12-28T07:23:35;37.58;;;5.65;;
54201;SDS011;40108;53.152;5.844;2023-12-28T07:26:01;46.78;;;7.00;;
54201;SDS011;40108;53.152;5.844;2023-12-28T07:28:27;61.03;;;7.47;;
54201;SDS011;40108;53.152;5.844;2023-12-28T07:30:53;39.50;;;5.80;;
54201;SDS011;40108;53.152;5.844;2023-12-28T07:33:19;50.63;;;7.85;;
54201;SDS011;40108;53.152;5.844;2023-12-28T07:35:45;42.08;;;6.25;;
54201;SDS011;40108;53.152;5.844;2023-12-28T07:38:11;51.90;;;6.68;;
54201;SDS011;40108;53.152;5.844;2023-12-28T07:40:37;46.75;;;7.05;;
54201;SDS011;40108;53.152;5.844;2023-12-28T07:43:03;40.63;;;6.93;;
54201;SDS011;40108;53.152;5.844;2023-12-28T07:45:29;55.25;;;7.00;;
54201;SDS011;40108;53.152;5.844;2023-12-28T07:48:03;46.70;;;7.45;;
54201;SDS011;40108;53.152;5.844;2023-12-28T07:50:32;48.80;;;7.50;;
54201;SDS011;40108;53.152;5.844;2023-12-28T07:52:58;46.55;;;8.07;;
54201;SDS011;40108;53.152;5.844;2023-12-28T07:55:24;40.53;;;6.30;;
54201;SDS011;40108;53.152;5.844;2023-12-28T07:57:51;40.63;;;6.88;;
54201;SDS011;40108;53.152;5.844;2023-12-28T08:00:16;44.03;;;7.00;;
54201;SDS011;40108;53.152;5.844;2023-12-28T08:02:42;54.83;;;8.20;;
54201;SDS011;40108;53.152;5.844;2023-12-28T08:05:08;50.45;;;6.90;;
54201;SDS011;40108;53.152;5.844;2023-12-28T08:07:34;48.75;;;8.30;;
54201;SDS011;40108;53.152;5.844;2023-12-28T08:10:00;42.92;;;6.85;;
54201;SDS011;40108;53.152;5.844;2023-12-28T08:12:26;48.03;;;7.47;;
54201;SDS011;40108;53.152;5.844;2023-12-28T08:14:52;45.83;;;7.03;;
54201;SDS011;40108;53.152;5.844;2023-12-28T08:17:19;42.75;;;7.18;;
54201;SDS011;40108;53.152;5.844;2023-12-28T08:19:45;53.97;;;7.47;;
54201;SDS011;40108;53.152;5.844;2023-12-28T08:22:11;45.72;;;7.03;;
54201;SDS011;40108;53.152;5.844;2023-12-28T08:24:36;45.00;;;7.22;;
54201;SDS011;40108;53.152;5.844;2023-12-28T08:27:02;57.20;;;7.80;;
54201;SDS011;40108;53.152;5.844;2023-12-28T08:29:28;56.67;;;7.47;;
54201;SDS011;40108;53.152;5.844;2023-12-28T08:31:54;51.38;;;7.68;;
54201;SDS011;40108;53.152;5.844;2023-12-28T08:34:20;59.38;;;8.15;;
54201;SDS011;40108;53.152;5.844;2023-12-28T08:36:46;44.70;;;7.65;;
54201;SDS011;40108;53.152;5.844;2023-12-28T08:39:12;46.03;;;6.30;;
54201;SDS011;40108;53.152;5.844;2023-12-28T08:41:38;50.67;;;7.50;;
54201;SDS011;40108;53.152;5.844;2023-12-28T08:44:04;42.53;;;7.10;;
54201;SDS011;40108;53.152;5.844;2023-12-28T08:46:30;53.60;;;7.50;;
54201;SDS011;40108;53.152;5.844;2023-12-28T08:48:56;45.60;;;7.25;;
54201;SDS011;40108;53.152;5.844;2023-12-28T08:51:22;60.53;;;9.00;;
54201;SDS011;40108;53.152;5.844;2023-12-28T08:53:47;49.60;;;7.45;;
54201;SDS011;40108;53.152;5.844;2023-12-28T08:58:43;58.95;;;7.95;;
54201;SDS011;40108;53.152;5.844;2023-12-28T09:01:17;55.50;;;7.85;;
54201;SDS011;40108;53.152;5.844;2023-12-28T09:03:43;46.88;;;7.28;;
54201;SDS011;40108;53.152;5.844;2023-12-28T09:06:10;46.58;;;6.60;;
54201;SDS011;40108;53.152;5.844;2023-12-28T09:08:36;44.90;;;6.57;;
54201;SDS011;40108;53.152;5.844;2023-12-28T09:11:01;54.70;;;7.22;;
54201;SDS011;40108;53.152;5.844;2023-12-28T09:13:27;51.85;;;7.32;;
54201;SDS011;40108;53.152;5.844;2023-12-28T09:15:53;45.40;;;6.65;;
54201;SDS011;40108;53.152;5.844;2023-12-28T09:18:18;41.20;;;6.78;;
54201;SDS011;40108;53.152;5.844;2023-12-28T09:20:44;49.25;;;7.85;;
54201;SDS011;40108;53.152;5.844;2023-12-28T09:23:10;47.88;;;7.07;;
54201;SDS011;40108;53.152;5.844;2023-12-28T09:25:36;44.63;;;7.00;;
54201;SDS011;40108;53.152;5.844;2023-12-28T09:28:04;51.65;;;7.53;;
54201;SDS011;40108;53.152;5.844;2023-12-28T09:30:30;35.28;;;6.30;;
54201;SDS011;40108;53.152;5.844;2023-12-28T09:32:56;46.17;;;7.15;;
54201;SDS011;40108;53.152;5.844;2023-12-28T09:35:22;44.83;;;6.20;;
54201;SDS011;40108;53.152;5.844;2023-12-28T09:37:50;45.88;;;6.70;;
54201;SDS011;40108;53.152;5.844;2023-12-28T09:40:16;41.75;;;6.80;;
54201;SDS011;40108;53.152;5.844;2023-12-28T09:42:52;48.05;;;6.93;;
54201;SDS011;40108;53.152;5.844;2023-12-28T09:45:29;41.42;;;6.47;;
54201;SDS011;40108;53.152;5.844;2023-12-28T09:47:55;46.00;;;7.97;;
54201;SDS011;40108;53.152;5.844;2023-12-28T09:50:20;43.53;;;6.72;;
54201;SDS011;40108;53.152;5.844;2023-12-28T09:52:48;42.33;;;6.43;;
54201;SDS011;40108;53.152;5.844;2023-12-28T09:55:14;35.58;;;6.03;;
54201;SDS011;40108;53.152;5.844;2023-12-28T09:57:40;36.30;;;6.07;;
54201;SDS011;40108;53.152;5.844;2023-12-28T10:00:07;42.50;;;6.88;;
54201;SDS011;40108;53.152;5.844;2023-12-28T10:02:34;45.08;;;7.32;;
54201;SDS011;40108;53.152;5.844;2023-12-28T10:05:01;34.42;;;5.28;;
54201;SDS011;40108;53.152;5.844;2023-12-28T10:07:27;45.28;;;6.35;;
54201;SDS011;40108;53.152;5.844;2023-12-28T10:09:53;37.08;;;5.70;;
54201;SDS011;40108;53.152;5.844;2023-12-28T10:12:19;38.33;;;6.18;;
54201;SDS011;40108;53.152;5.844;2023-12-28T10:14:45;35.90;;;5.88;;
54201;SDS011;40108;53.152;5.844;2023-12-28T10:17:10;34.05;;;6.30;;
54201;SDS011;40108;53.152;5.844;2023-12-28T10:19:36;38.35;;;5.78;;
54201;SDS011;40108;53.152;5.844;2023-12-28T10:22:03;42.13;;;5.97;;
54201;SDS011;40108;53.152;5.844;2023-12-28T10:24:30;39.55;;;6.10;;
54201;SDS011;40108;53.152;5.844;2023-12-28T10:26:55;42.40;;;6.93;;
54201;SDS011;40108;53.152;5.844;2023-12-28T10:29:24;51.28;;;6.50;;
54201;SDS011;40108;53.152;5.844;2023-12-28T10:31:50;44.00;;;6.43;;
54201;SDS011;40108;53.152;5.844;2023-12-28T10:34:16;42.55;;;6.97;;
54201;SDS011;40108;53.152;5.844;2023-12-28T10:36:43;36.63;;;5.90;;
54201;SDS011;40108;53.152;5.844;2023-12-28T10:39:12;39.05;;;6.13;;
54201;SDS011;40108;53.152;5.844;2023-12-28T10:41:43;40.00;;;6.15;;
54201;SDS011;40108;53.152;5.844;2023-12-28T10:44:11;50.75;;;6.93;;
54201;SDS011;40108;53.152;5.844;2023-12-28T10:46:43;36.25;;;4.75;;
54201;SDS011;40108;53.152;5.844;2023-12-28T10:49:10;33.55;;;5.53;;
54201;SDS011;40108;53.152;5.844;2023-12-28T10:51:40;43.25;;;6.55;;
54201;SDS011;40108;53.152;5.844;2023-12-28T10:54:14;43.53;;;6.85;;
54201;SDS011;40108;53.152;5.844;2023-12-28T10:56:45;43.28;;;5.93;;
54201;SDS011;40108;53.152;5.844;2023-12-28T10:59:17;52.28;;;7.93;;
54201;SDS011;40108;53.152;5.844;2023-12-28T11:01:58;35.53;;;6.40;;
54201;SDS011;40108;53.152;5.844;2023-12-28T11:04:40;32.95;;;5.15;;
54201;SDS011;40108;53.152;5.844;2023-12-28T11:07:09;38.67;;;6.30;;
54201;SDS011;40108;53.152;5.844;2023-12-28T11:09:38;43.25;;;6.28;;
54201;SDS011;40108;53.152;5.844;2023-12-28T11:12:07;39.08;;;5.80;;
54201;SDS011;40108;53.152;5.844;2023-12-28T11:14:35;42.28;;;7.05;;
54201;SDS011;40108;53.152;5.844;2023-12-28T11:17:04;35.55;;;5.75;;
54201;SDS011;40108;53.152;5.844;2023-12-28T11:19:30;35.92;;;5.97;;
54201;SDS011;40108;53.152;5.844;2023-12-28T11:22:00;45.40;;;6.65;;
54201;SDS011;40108;53.152;5.844;2023-12-28T11:24:28;41.97;;;5.50;;
54201;SDS011;40108;53.152;5.844;2023-12-28T11:26:56;35.22;;;5.43;;
54201;SDS011;40108;53.152;5.844;2023-12-28T11:29:22;45.75;;;6.32;;
54201;SDS011;40108;53.152;5.844;2023-12-28T11:31:52;42.78;;;6.25;;
54201;SDS011;40108;53.152;5.844;2023-12-28T11:34:26;32.08;;;5.03;;
54201;SDS011;40108;53.152;5.844;2023-12-28T11:36:56;38.40;;;6.40;;
54201;SDS011;40108;53.152;5.844;2023-12-28T11:39:31;45.33;;;6.57;;
54201;SDS011;40108;53.152;5.844;2023-12-28T11:42:05;41.17;;;5.95;;
54201;SDS011;40108;53.152;5.844;2023-12-28T11:44:38;38.60;;;6.75;;
54201;SDS011;40108;53.152;5.844;2023-12-28T11:49:39;52.67;;;7.45;;
54201;SDS011;40108;53.152;5.844;2023-12-28T11:52:06;46.33;;;7.00;;
54201;SDS011;40108;53.152;5.844;2023-12-28T11:54:32;44.83;;;6.53;;
54201;SDS011;40108;53.152;5.844;2023-12-28T11:56:58;45.90;;;6.72;;
54201;SDS011;40108;53.152;5.844;2023-12-28T11:59:24;47.17;;;7.05;;
54201;SDS011;40108;53.152;5.844;2023-12-28T12:01:50;43.88;;;7.43;;
54201;SDS011;40108;53.152;5.844;2023-12-28T12:04:17;39.55;;;6.05;;
54201;SDS011;40108;53.152;5.844;2023-12-28T12:06:44;51.65;;;7.05;;
54201;SDS011;40108;53.152;5.844;2023-12-28T12:09:11;45.45;;;7.30;;
54201;SDS011;40108;53.152;5.844;2023-12-28T12:11:38;38.60;;;6.50;;
54201;SDS011;40108;53.152;5.844;2023-12-28T12:14:13;42.88;;;7.55;;
54201;SDS011;40108;53.152;5.844;2023-12-28T12:16:38;40.92;;;6.80;;
54201;SDS011;40108;53.152;5.844;2023-12-28T12:19:05;51.90;;;7.20;;
54201;SDS011;40108;53.152;5.844;2023-12-28T12:21:34;51.05;;;6.28;;
54201;SDS011;40108;53.152;5.844;2023-12-28T12:24:00;42.90;;;6.35;;
54201;SDS011;40108;53.152;5.844;2023-12-28T12:26:27;46.70;;;7.97;;
54201;SDS011;40108;53.152;5.844;2023-12-28T12:28:55;46.03;;;6.80;;
54201;SDS011;40108;53.152;5.844;2023-12-28T12:31:21;41.95;;;6.72;;
54201;SDS011;40108;53.152;5.844;2023-12-28T12:33:47;44.30;;;7.05;;
54201;SDS011;40108;53.152;5.844;2023-12-28T12:36:16;37.75;;;5.85;;
54201;SDS011;40108;53.152;5.844;2023-12-28T12:38:42;28.95;;;5.05;;
54201;SDS011;40108;53.152;5.844;2023-12-28T12:41:09;45.47;;;7.32;;
54201;SDS011;40108;53.152;5.844;2023-12-28T12:43:37;41.40;;;7.18;;
54201;SDS011;40108;53.152;5.844;2023-12-28T12:46:03;42.03;;;7.05;;
54201;SDS011;40108;53.152;5.844;2023-12-28T12:48:29;44.78;;;6.47;;
54201;SDS011;40108;53.152;5.844;2023-12-28T12:50:55;41.05;;;7.18;;
54201;SDS011;40108;53.152;5.844;2023-12-28T12:53:21;36.67;;;5.65;;
54201;SDS011;40108;53.152;5.844;2023-12-28T12:55:47;33.72;;;6.32;;
54201;SDS011;40108;53.152;5.844;2023-12-28T12:58:13;48.85;;;6.85;;
54201;SDS011;40108;53.152;5.844;2023-12-28T13:00:42;47.08;;;7.15;;
54201;SDS011;40108;53.152;5.844;2023-12-28T13:03:09;34.83;;;5.50;;
54201;SDS011;40108;53.152;5.844;2023-12-28T13:05:36;42.95;;;5.70;;
54201;SDS011;40108;53.152;5.844;2023-12-28T13:08:03;39.72;;;5.63;;
54201;SDS011;40108;53.152;5.844;2023-12-28T13:10:30;40.97;;;6.07;;
54201;SDS011;40108;53.152;5.844;2023-12-28T13:12:56;40.30;;;5.63;;
54201;SDS011;40108;53.152;5.844;2023-12-28T13:15:22;42.90;;;6.43;;
54201;SDS011;40108;53.152;5.844;2023-12-28T13:17:47;33.60;;;5.90;;
54201;SDS011;40108;53.152;5.844;2023-12-28T13:20:13;51.30;;;5.85;;
54201;SDS011;40108;53.152;5.844;2023-12-28T13:22:39;43.88;;;6.95;;
54201;SDS011;40108;53.152;5.844;2023-12-28T13:25:05;41.00;;;6.57;;
54201;SDS011;40108;53.152;5.844;2023-12-28T13:27:31;44.28;;;6.07;;
54201;SDS011;40108;53.152;5.844;2023-12-28T13:29:57;43.58;;;6.80;;
54201;SDS011;40108;53.152;5.844;2023-12-28T13:32:23;45.30;;;6.13;;
54201;SDS011;40108;53.152;5.844;2023-12-28T13:34:51;35.53;;;5.65;;
54201;SDS011;40108;53.152;5.844;2023-12-28T13:37:17;38.42;;;5.78;;
54201;SDS011;40108;53.152;5.844;2023-12-28T13:39:43;45.35;;;6.90;;
54201;SDS011;40108;53.152;5.844;2023-12-28T13:42:09;49.45;;;6.53;;
54201;SDS011;40108;53.152;5.844;2023-12-28T13:44:37;39.92;;;5.78;;
54201;SDS011;40108;53.152;5.844;2023-12-28T13:47:03;44.20;;;5.80;;
54201;SDS011;40108;53.152;5.844;2023-12-28T13:49:31;37.75;;;5.35;;
54201;SDS011;40108;53.152;5.844;2023-12-28T13:51:57;40.08;;;6.32;;
54201;SDS011;40108;53.152;5.844;2023-12-28T13:54:23;39.65;;;5.63;;
54201;SDS011;40108;53.152;5.844;2023-12-28T13:56:49;34.10;;;5.75;;
54201;SDS011;40108;53.152;5.844;2023-12-28T13:59:18;34.45;;;5.18;;
54201;SDS011;40108;53.152;5.844;2023-12-28T14:01:44;43.05;;;6.00;;
54201;SDS011;40108;53.152;5.844;2023-12-28T14:04:10;36.50;;;5.47;;
54201;SDS011;40108;53.152;5.844;2023-12-28T14:06:36;35.65;;;5.88;;
54201;SDS011;40108;53.152;5.844;2023-12-28T14:09:01;35.10;;;6.32;;
54201;SDS011;40108;53.152;5.844;2023-12-28T14:11:27;38.28;;;5.03;;
54201;SDS011;40108;53.152;5.844;2023-12-28T14:13:53;32.78;;;5.20;;
54201;SDS011;40108;53.152;5.844;2023-12-28T14:16:19;35.05;;;5.50;;
54201;SDS011;40108;53.152;5.844;2023-12-28T14:18:44;39.50;;;4.88;;
54201;SDS011;40108;53.152;5.844;2023-12-28T14:21:12;34.17;;;5.05;;
54201;SDS011;40108;53.152;5.844;2023-12-28T14:23:38;29.48;;;4.80;;
54201;SDS011;40108;53.152;5.844;2023-12-28T14:26:11;34.15;;;5.30;;
54201;SDS011;40108;53.152;5.844;2023-12-28T14:28:41;35.65;;;5.03;;
54201;SDS011;40108;53.152;5.844;2023-12-28T14:31:09;35.03;;;5.20;;
54201;SDS011;40108;53.152;5.844;2023-12-28T14:33:36;38.40;;;5.00;;
54201;SDS011;40108;53.152;5.844;2023-12-28T14:36:04;39.20;;;5.40;;
54201;SDS011;40108;53.152;5.844;2023-12-28T14:38:35;40.67;;;5.43;;
54201;SDS011;40108;53.152;5.844;2023-12-28T14:41:01;30.70;;;4.85;;